createdAt,value
2018-12-04T00:01:27.872Z,4.50
2018-12-04T00:03:55.586Z,4.17
2018-12-04T00:06:23.223Z,4.20
2018-12-04T00:08:51.048Z,4.80
2018-12-04T00:11:18.603Z,5.23
2018-12-04T00:13:46.120Z,4.70
2018-12-04T00:16:13.574Z,4.27
2018-12-04T00:18:41.006Z,3.90
2018-12-04T00:21:08.594Z,3.93
2018-12-04T00:23:36.168Z,3.47
2018-12-04T00:26:03.809Z,3.23
2018-12-04T00:28:31.360Z,3.13
2018-12-04T00:30:58.978Z,3.90
2018-12-04T00:33:26.562Z,3.07
2018-12-04T00:35:54.197Z,3.33
2018-12-04T00:38:21.734Z,4.27
2018-12-04T00:40:49.284Z,4.30
2018-12-04T00:43:16.805Z,5.30
2018-12-04T00:45:44.441Z,4.93
2018-12-04T00:48:12.162Z,5.07
2018-12-04T00:50:39.902Z,4.33
2018-12-04T00:53:08.859Z,3.93
2018-12-04T00:55:39.437Z,3.50
2018-12-04T00:58:07.360Z,3.03
2018-12-04T01:00:35.163Z,3.50
2018-12-04T01:03:03.215Z,3.30
2018-12-04T01:05:30.796Z,2.57
2018-12-04T01:07:58.293Z,2.63
2018-12-04T01:10:25.829Z,2.30
2018-12-04T01:12:53.438Z,2.23
2018-12-04T01:15:21.182Z,1.90
2018-12-04T01:17:48.811Z,2.43
2018-12-04T01:20:16.564Z,2.00
2018-12-04T01:22:44.132Z,2.13
2018-12-04T01:25:11.785Z,1.70
2018-12-04T01:27:39.486Z,1.77
2018-12-04T01:30:07.091Z,1.53
2018-12-04T01:32:34.897Z,1.60
2018-12-04T01:35:02.441Z,1.60
2018-12-04T01:37:29.996Z,1.30
2018-12-04T01:39:57.559Z,1.63
2018-12-04T01:42:25.442Z,1.50
2018-12-04T01:44:53.048Z,1.73
2018-12-04T01:47:20.556Z,1.60
2018-12-04T01:49:48.234Z,1.63
2018-12-04T01:52:15.830Z,1.77
2018-12-04T01:54:43.290Z,1.57
2018-12-04T01:57:10.829Z,1.67
2018-12-04T01:59:38.385Z,1.50
2018-12-04T02:02:05.832Z,1.73
2018-12-04T02:04:33.584Z,1.60
2018-12-04T02:07:01.060Z,2.20
2018-12-04T02:09:28.536Z,2.10
2018-12-04T02:11:56.134Z,1.63
2018-12-04T02:14:23.777Z,1.80
2018-12-04T02:16:51.392Z,1.70
2018-12-04T02:19:18.992Z,1.70
2018-12-04T02:21:46.466Z,2.03
2018-12-04T02:24:14.056Z,1.70
2018-12-04T02:26:41.616Z,1.63
2018-12-04T02:29:09.189Z,1.93
2018-12-04T02:31:36.835Z,1.60
2018-12-04T02:34:04.637Z,2.10
2018-12-04T02:36:32.347Z,2.10
2018-12-04T02:39:00.069Z,1.30
2018-12-04T02:41:27.744Z,1.63
2018-12-04T02:43:55.323Z,1.23
2018-12-04T02:46:22.957Z,1.50
2018-12-04T02:48:50.376Z,1.90
2018-12-04T02:51:17.936Z,1.67
2018-12-04T02:53:45.871Z,1.03
2018-12-04T02:56:13.420Z,1.87
2018-12-04T02:58:41.076Z,1.30
2018-12-04T03:01:08.664Z,1.70
2018-12-04T03:03:36.180Z,1.47
2018-12-04T03:06:03.809Z,1.67
2018-12-04T03:08:31.407Z,1.53
2018-12-04T03:10:59.137Z,1.40
2018-12-04T03:13:26.764Z,1.50
2018-12-04T03:15:54.420Z,1.83
2018-12-04T03:18:22.045Z,1.50
2018-12-04T03:20:49.550Z,2.00
2018-12-04T03:23:17.264Z,1.93
2018-12-04T03:25:44.786Z,1.83
2018-12-04T03:28:12.328Z,1.80
2018-12-04T03:30:40.028Z,1.50
2018-12-04T03:33:07.763Z,1.77
2018-12-04T03:35:35.364Z,1.77
2018-12-04T03:38:03.151Z,2.03
2018-12-04T03:40:31.226Z,1.93
2018-12-04T03:42:58.982Z,1.90
2018-12-04T03:45:26.550Z,1.90
2018-12-04T03:47:54.107Z,1.90
2018-12-04T03:50:22.076Z,1.77
2018-12-04T03:52:49.521Z,2.57
2018-12-04T03:55:17.101Z,2.10
2018-12-04T03:57:44.810Z,2.93
2018-12-04T04:00:12.471Z,2.80
2018-12-04T04:02:40.042Z,2.90
2018-12-04T04:05:07.627Z,2.83
2018-12-04T04:07:35.359Z,2.80
2018-12-04T04:10:03.874Z,3.53
2018-12-04T04:12:31.456Z,3.20
2018-12-04T04:14:59.102Z,3.33
2018-12-04T04:17:26.659Z,3.50
2018-12-04T04:19:54.124Z,3.53
2018-12-04T04:22:21.635Z,3.40
2018-12-04T04:24:49.194Z,4.57
2018-12-04T04:27:16.854Z,3.33
2018-12-04T04:29:44.429Z,3.47
2018-12-04T04:32:11.915Z,4.10
2018-12-04T04:34:39.486Z,3.77
2018-12-04T04:37:07.136Z,3.63
2018-12-04T04:39:34.906Z,3.93
2018-12-04T04:42:03.607Z,2.97
2018-12-04T04:44:31.227Z,3.53
2018-12-04T04:46:58.923Z,3.53
2018-12-04T04:49:26.474Z,3.07
2018-12-04T04:51:54.075Z,2.80
2018-12-04T04:54:21.623Z,3.03
2018-12-04T04:56:49.191Z,2.80
2018-12-04T04:59:16.841Z,3.20
2018-12-04T05:01:44.522Z,2.70
2018-12-04T05:04:12.376Z,2.63
2018-12-04T05:06:40.083Z,3.83
2018-12-04T05:09:07.620Z,3.00
2018-12-04T05:11:35.107Z,3.23
2018-12-04T05:14:02.742Z,3.60
2018-12-04T05:16:30.344Z,3.50
2018-12-04T05:18:58.233Z,4.20
2018-12-04T05:21:26.121Z,3.40
2018-12-04T05:23:53.687Z,3.80
2018-12-04T05:26:21.287Z,3.13
2018-12-04T05:28:48.853Z,3.97
2018-12-04T05:31:16.350Z,3.13
2018-12-04T05:33:44.013Z,3.10
2018-12-04T05:36:11.767Z,2.83
2018-12-04T05:38:39.332Z,3.20
2018-12-04T05:41:06.855Z,2.40
2018-12-04T05:43:34.385Z,2.63
2018-12-04T05:46:02.063Z,2.30
2018-12-04T05:48:29.614Z,2.60
2018-12-04T05:50:57.063Z,2.50
2018-12-04T05:53:33.791Z,2.17
2018-12-04T05:56:01.380Z,2.50
2018-12-04T05:58:29.291Z,1.90
2018-12-04T06:00:57.364Z,2.67
2018-12-04T06:03:24.982Z,2.63
2018-12-04T06:05:52.659Z,2.37
2018-12-04T06:08:20.148Z,2.70
2018-12-04T06:10:48.765Z,2.37
2018-12-04T06:13:16.612Z,2.37
2018-12-04T06:15:44.379Z,1.83
2018-12-04T06:18:11.972Z,2.70
2018-12-04T06:20:39.648Z,2.20
2018-12-04T06:23:07.547Z,2.40
2018-12-04T06:25:35.269Z,2.33
2018-12-04T06:28:02.842Z,1.80
2018-12-04T06:30:30.388Z,2.17
2018-12-04T06:32:58.152Z,2.53
2018-12-04T06:35:26.082Z,2.70
2018-12-04T06:37:53.616Z,4.03
2018-12-04T06:40:21.195Z,4.73
2018-12-04T06:42:48.772Z,4.23
2018-12-04T06:45:16.380Z,4.33
2018-12-04T06:47:44.120Z,4.53
2018-12-04T06:50:11.767Z,3.90
2018-12-04T06:52:39.356Z,3.10
2018-12-04T06:55:08.033Z,2.80
2018-12-04T06:57:35.911Z,2.20
2018-12-04T07:00:05.306Z,2.10
2018-12-04T07:02:33.170Z,2.20
2018-12-04T07:05:00.556Z,2.20
2018-12-04T07:07:28.092Z,1.93
2018-12-04T07:09:55.642Z,1.60
2018-12-04T07:12:23.175Z,2.10
2018-12-04T07:14:50.820Z,2.00
2018-12-04T07:17:18.805Z,1.70
2018-12-04T07:19:46.463Z,1.60
2018-12-04T07:22:14.155Z,1.80
2018-12-04T07:24:41.709Z,1.77
2018-12-04T07:27:09.326Z,2.13
2018-12-04T07:29:36.783Z,2.33
2018-12-04T07:32:04.278Z,1.50
2018-12-04T07:34:31.965Z,2.33
2018-12-04T07:36:59.548Z,1.63
2018-12-04T07:39:27.191Z,2.67
2018-12-04T07:41:54.924Z,2.13
2018-12-04T07:44:22.502Z,2.67
2018-12-04T07:46:50.092Z,2.13
2018-12-04T07:49:17.601Z,2.47
2018-12-04T07:51:45.602Z,2.20
2018-12-04T07:54:13.504Z,2.33
2018-12-04T07:56:41.101Z,2.00
2018-12-04T07:59:08.599Z,2.17
2018-12-04T08:01:36.688Z,2.37
2018-12-04T08:04:04.301Z,2.40
2018-12-04T08:06:31.997Z,2.43
2018-12-04T08:08:59.456Z,2.70
2018-12-04T08:11:27.214Z,2.47
2018-12-04T08:13:54.743Z,2.13
2018-12-04T08:16:22.475Z,1.90
2018-12-04T08:18:49.992Z,2.67
2018-12-04T08:21:17.801Z,2.33
2018-12-04T08:23:45.545Z,2.33
2018-12-04T08:26:13.123Z,2.80
2018-12-04T08:28:40.682Z,2.77
2018-12-04T08:31:08.270Z,2.00
2018-12-04T08:33:35.778Z,2.17
2018-12-04T08:36:03.595Z,1.80
2018-12-04T08:38:31.138Z,2.63
2018-12-04T08:40:58.634Z,2.00
2018-12-04T08:43:26.182Z,2.30
2018-12-04T08:45:53.701Z,2.17
2018-12-04T08:48:21.260Z,2.27
2018-12-04T08:50:48.800Z,2.60
2018-12-04T08:53:16.322Z,2.63
2018-12-04T08:55:43.850Z,2.30
2018-12-04T08:58:11.438Z,2.10
2018-12-04T09:00:38.946Z,2.23
2018-12-04T09:03:06.462Z,2.33
2018-12-04T09:05:33.985Z,2.70
2018-12-04T09:08:01.561Z,2.27
2018-12-04T09:10:29.332Z,2.50
2018-12-04T09:12:57.242Z,2.27
2018-12-04T09:15:25.635Z,2.10
2018-12-04T09:17:53.064Z,2.43
2018-12-04T09:20:20.606Z,2.30
2018-12-04T09:22:48.129Z,2.50
2018-12-04T09:25:15.806Z,2.20
2018-12-04T09:27:43.513Z,2.40
2018-12-04T09:30:12.135Z,2.30
2018-12-04T09:32:39.819Z,1.93
2018-12-04T09:35:07.363Z,2.10
2018-12-04T09:37:34.864Z,2.40
2018-12-04T09:40:02.496Z,4.07
2018-12-04T09:42:30.288Z,2.30
2018-12-04T09:44:57.927Z,2.27
2018-12-04T09:47:25.508Z,2.33
2018-12-04T09:49:53.094Z,2.47
2018-12-04T09:52:20.607Z,2.10
2018-12-04T09:54:48.138Z,2.37
2018-12-04T09:57:15.714Z,2.50
2018-12-04T09:59:43.598Z,2.93
2018-12-04T10:02:11.107Z,2.80
2018-12-04T10:04:38.692Z,2.53
2018-12-04T10:07:06.185Z,2.70
2018-12-04T10:09:33.705Z,2.60
2018-12-04T10:12:01.459Z,2.60
2018-12-04T10:14:28.937Z,3.33
2018-12-04T10:16:56.618Z,3.70
2018-12-04T10:19:24.323Z,2.93
2018-12-04T10:21:52.085Z,3.13
2018-12-04T10:24:19.806Z,2.87
2018-12-04T10:26:52.041Z,4.53
2018-12-04T10:29:19.685Z,3.90
2018-12-04T10:31:47.254Z,3.10
2018-12-04T10:34:14.904Z,3.00
2018-12-04T10:36:42.480Z,2.83
2018-12-04T10:39:10.154Z,2.63
2018-12-04T10:41:38.090Z,3.10
2018-12-04T10:44:05.864Z,2.40
2018-12-04T10:46:33.424Z,2.63
2018-12-04T10:49:00.980Z,2.63
2018-12-04T10:51:28.635Z,3.00
2018-12-04T10:53:56.411Z,2.60
2018-12-04T10:56:24.097Z,2.63
2018-12-04T10:58:51.688Z,2.70
2018-12-04T11:01:26.945Z,2.63
2018-12-04T11:03:54.492Z,3.27
2018-12-04T11:06:22.113Z,3.03
2018-12-04T11:08:49.991Z,3.00
2018-12-04T11:11:17.711Z,3.07
2018-12-04T11:13:45.371Z,2.70
2018-12-04T11:16:13.049Z,3.63
2018-12-04T11:18:40.559Z,2.90
2018-12-04T11:21:08.137Z,2.90
2018-12-04T11:23:35.720Z,3.03
2018-12-04T11:26:03.451Z,3.03
2018-12-04T11:28:31.032Z,3.80
2018-12-04T11:30:58.623Z,3.07
2018-12-04T11:33:26.232Z,3.60
2018-12-04T11:35:53.765Z,4.00
2018-12-04T11:38:21.330Z,3.57
2018-12-04T11:40:48.939Z,3.53
2018-12-04T11:43:16.471Z,3.90
2018-12-04T11:45:44.040Z,4.33
2018-12-04T11:48:11.597Z,3.80
2018-12-04T11:50:39.215Z,3.87
2018-12-04T11:53:06.669Z,3.83
2018-12-04T11:55:34.192Z,3.13
2018-12-04T11:58:01.925Z,2.93
2018-12-04T12:00:33.832Z,3.40
2018-12-04T12:03:01.804Z,3.27
2018-12-04T12:05:29.534Z,3.13
2018-12-04T12:07:57.106Z,3.13
2018-12-04T12:10:25.207Z,3.13
2018-12-04T12:12:52.744Z,2.77
2018-12-04T12:15:20.312Z,2.70
2018-12-04T12:17:47.950Z,2.90
2018-12-04T12:20:15.508Z,3.03
2018-12-04T12:22:43.123Z,3.10
2018-12-04T12:25:10.871Z,3.20
2018-12-04T12:27:38.513Z,3.80
2018-12-04T12:30:08.509Z,3.23
2018-12-04T12:32:36.067Z,3.90
2018-12-04T12:35:04.223Z,3.80
2018-12-04T12:37:31.839Z,3.33
2018-12-04T12:39:59.451Z,3.50
2018-12-04T12:42:27.120Z,3.20
2018-12-04T12:44:54.679Z,3.73
2018-12-04T12:47:22.332Z,3.23
2018-12-04T12:49:49.927Z,3.83
2018-12-04T12:52:17.629Z,3.27
2018-12-04T12:54:45.191Z,3.27
2018-12-04T12:57:12.769Z,3.30
2018-12-04T12:59:40.399Z,3.13
2018-12-04T13:02:07.937Z,3.07
2018-12-04T13:04:35.675Z,3.50
2018-12-04T13:07:03.470Z,3.17
2018-12-04T13:09:31.087Z,2.90
2018-12-04T13:11:58.859Z,2.87
2018-12-04T13:14:26.453Z,2.37
2018-12-04T13:16:55.149Z,3.03
2018-12-04T13:19:22.895Z,2.73
2018-12-04T13:21:50.460Z,2.63
2018-12-04T13:24:18.045Z,3.00
2018-12-04T13:26:45.843Z,3.47
2018-12-04T13:29:13.408Z,2.73
2018-12-04T13:31:40.932Z,2.73
2018-12-04T13:34:08.738Z,3.57
2018-12-04T13:36:36.343Z,2.93
2018-12-04T13:39:07.628Z,3.37
2018-12-04T13:41:35.393Z,3.33
2018-12-04T13:44:03.072Z,3.83
2018-12-04T13:46:30.604Z,3.10
2018-12-04T13:48:58.031Z,3.03
2018-12-04T13:51:25.640Z,3.00
2018-12-04T13:53:53.287Z,3.40
2018-12-04T13:56:22.465Z,3.37
2018-12-04T13:58:50.467Z,3.17
2018-12-04T14:01:18.026Z,3.23
2018-12-04T14:03:45.754Z,3.17
2018-12-04T14:06:13.581Z,3.10
2018-12-04T14:08:41.339Z,3.47
2018-12-04T14:11:08.967Z,3.87
2018-12-04T14:13:36.518Z,3.40
2018-12-04T14:16:04.086Z,3.17
2018-12-04T14:18:32.015Z,3.70
2018-12-04T14:20:59.666Z,3.17
2018-12-04T14:23:27.229Z,3.03
2018-12-04T14:25:54.939Z,3.30
2018-12-04T14:28:22.815Z,2.87
2018-12-04T14:30:50.423Z,3.60
2018-12-04T14:33:17.988Z,3.33
2018-12-04T14:35:46.139Z,3.57
2018-12-04T14:38:13.822Z,3.43
2018-12-04T14:40:41.459Z,3.93
2018-12-04T14:43:09.075Z,3.30
2018-12-04T14:45:36.786Z,3.07
2018-12-04T14:48:04.343Z,3.13
2018-12-04T14:50:32.021Z,3.30
2018-12-04T14:52:59.682Z,2.97
2018-12-04T14:55:27.309Z,3.43
2018-12-04T14:57:55.280Z,3.90
2018-12-04T15:00:23.028Z,3.37
2018-12-04T15:02:50.600Z,3.37
2018-12-04T15:05:18.360Z,3.00
2018-12-04T15:07:46.026Z,2.77
2018-12-04T15:10:13.965Z,2.90
2018-12-04T15:12:48.159Z,3.17
2018-12-04T15:15:15.796Z,3.13
2018-12-04T15:17:43.321Z,3.30
2018-12-04T15:20:11.072Z,2.50
2018-12-04T15:22:38.745Z,2.77
2018-12-04T15:25:06.491Z,3.00
2018-12-04T15:27:34.068Z,3.00
2018-12-04T15:30:01.737Z,2.87
2018-12-04T15:32:29.438Z,3.30
2018-12-04T15:34:56.982Z,3.30
2018-12-04T15:37:24.606Z,3.40
2018-12-04T15:39:52.537Z,3.67
2018-12-04T15:42:20.517Z,3.50
2018-12-04T15:44:48.092Z,3.60
2018-12-04T15:47:15.692Z,3.40
2018-12-04T15:49:43.288Z,3.70
2018-12-04T15:52:10.886Z,4.77
2018-12-04T15:54:38.746Z,4.30
2018-12-04T15:57:06.414Z,4.10
2018-12-04T15:59:34.072Z,3.47
2018-12-04T16:02:02.338Z,3.93
2018-12-04T16:04:30.044Z,3.70
2018-12-04T16:06:57.627Z,4.53
2018-12-04T16:09:25.334Z,4.33
2018-12-04T16:11:53.002Z,4.10
2018-12-04T16:14:20.588Z,4.30
2018-12-04T16:16:48.220Z,4.80
2018-12-04T16:19:15.920Z,5.63
2018-12-04T16:21:43.453Z,5.30
2018-12-04T16:24:11.066Z,5.60
2018-12-04T16:26:38.780Z,5.33
2018-12-04T16:29:06.404Z,5.62
2018-12-04T16:31:33.933Z,6.22
2018-12-04T16:34:01.686Z,5.90
2018-12-04T16:36:29.211Z,6.05
2018-12-04T16:38:57.107Z,6.30
2018-12-04T16:41:24.775Z,6.60
2018-12-04T16:43:52.451Z,6.90
2018-12-04T16:46:20.008Z,6.97
2018-12-04T16:48:47.891Z,7.20
2018-12-04T16:51:15.481Z,6.03
2018-12-04T16:53:43.165Z,6.72
2018-12-04T16:56:10.685Z,6.10
2018-12-04T16:58:38.400Z,6.45
2018-12-04T17:01:06.056Z,6.08
2018-12-04T17:03:33.618Z,6.93
2018-12-04T17:06:01.212Z,5.75
2018-12-04T17:08:29.009Z,5.37
2018-12-04T17:10:56.551Z,6.35
2018-12-04T17:13:24.229Z,6.05
2018-12-04T17:15:51.799Z,7.33
2018-12-04T17:18:19.320Z,6.90
2018-12-04T17:20:46.805Z,6.12
2018-12-04T17:23:14.375Z,6.40
2018-12-04T17:25:41.951Z,6.45
2018-12-04T17:28:09.625Z,5.87
2018-12-04T17:30:37.301Z,6.78
2018-12-04T17:33:05.085Z,7.53
2018-12-04T17:35:33.046Z,6.90
2018-12-04T17:38:00.746Z,6.97
2018-12-04T17:40:28.445Z,6.60
2018-12-04T17:42:56.052Z,9.85
2018-12-04T17:45:23.624Z,6.58
2018-12-04T17:47:51.160Z,8.78
2018-12-04T17:50:18.784Z,5.72
2018-12-04T17:52:46.519Z,5.90
2018-12-04T17:55:14.190Z,7.10
2018-12-04T17:57:41.621Z,7.83
2018-12-04T18:00:11.559Z,6.78
2018-12-04T18:02:39.107Z,6.28
2018-12-04T18:05:06.832Z,7.03
2018-12-04T18:07:34.341Z,7.08
2018-12-04T18:10:02.067Z,7.30
2018-12-04T18:12:29.811Z,6.75
2018-12-04T18:14:57.736Z,6.90
2018-12-04T18:17:25.323Z,7.60
2018-12-04T18:19:52.949Z,10.82
2018-12-04T18:22:21.100Z,7.12
2018-12-04T18:24:48.691Z,7.78
2018-12-04T18:27:16.357Z,7.42
2018-12-04T18:29:43.975Z,7.70
2018-12-04T18:32:11.537Z,8.13
2018-12-04T18:34:39.102Z,8.25
2018-12-04T18:37:06.708Z,7.70
2018-12-04T18:39:34.213Z,7.60
2018-12-04T18:42:01.760Z,8.15
2018-12-04T18:44:29.382Z,7.65
2018-12-04T18:46:57.077Z,8.00
2018-12-04T18:49:24.618Z,7.45
2018-12-04T18:51:52.197Z,6.12
2018-12-04T18:54:19.868Z,5.87
2018-12-04T18:56:47.395Z,6.47
2018-12-04T18:59:14.980Z,6.25
2018-12-04T19:01:42.447Z,6.42
2018-12-04T19:04:10.337Z,6.60
2018-12-04T19:06:37.932Z,5.80
2018-12-04T19:09:07.441Z,6.37
2018-12-04T19:11:35.163Z,6.10
2018-12-04T19:14:03.055Z,6.62
2018-12-04T19:16:30.735Z,7.15
2018-12-04T19:18:58.476Z,7.20
2018-12-04T19:21:25.999Z,7.25
2018-12-04T19:23:53.584Z,7.35
2018-12-04T19:26:21.060Z,7.65
2018-12-04T19:28:51.750Z,7.25
2018-12-04T19:31:19.319Z,7.05
2018-12-04T19:33:46.886Z,7.00
2018-12-04T19:36:14.534Z,7.42
2018-12-04T19:38:42.098Z,7.17
2018-12-04T19:41:09.659Z,7.67
2018-12-04T19:43:37.184Z,7.15
2018-12-04T19:46:04.878Z,7.53
2018-12-04T19:48:32.588Z,6.97
2018-12-04T19:51:00.119Z,7.05
2018-12-04T19:53:27.679Z,7.90
2018-12-04T19:55:55.241Z,8.50
2018-12-04T19:58:22.853Z,7.90
2018-12-04T20:00:50.573Z,7.97
2018-12-04T20:03:18.278Z,7.85
2018-12-04T20:08:31.876Z,9.40
2018-12-04T20:10:59.964Z,8.78
2018-12-04T20:13:27.652Z,9.28
2018-12-04T20:15:55.414Z,8.53
2018-12-04T20:18:22.950Z,9.00
2018-12-04T20:20:50.542Z,9.03
2018-12-04T20:23:24.990Z,8.43
2018-12-04T20:25:52.581Z,8.45
2018-12-04T20:28:20.256Z,8.90
2018-12-04T20:30:47.813Z,9.08
2018-12-04T20:33:15.416Z,9.00
2018-12-04T20:35:42.888Z,10.00
2018-12-04T20:38:10.445Z,9.25
2018-12-04T20:40:38.141Z,9.35
2018-12-04T20:43:05.744Z,9.30
2018-12-04T20:45:33.314Z,10.28
2018-12-04T20:48:00.923Z,10.18
2018-12-04T20:50:28.494Z,10.30
2018-12-04T20:52:56.006Z,10.00
2018-12-04T20:55:23.512Z,10.90
2018-12-04T20:57:51.206Z,12.07
2018-12-04T21:00:18.834Z,11.22
2018-12-04T21:02:46.686Z,10.75
2018-12-04T21:05:14.270Z,11.30
2018-12-04T21:07:41.836Z,11.35
2018-12-04T21:10:09.448Z,11.43
2018-12-04T21:12:36.964Z,10.85
2018-12-04T21:15:05.446Z,11.75
2018-12-04T21:17:33.056Z,10.68
2018-12-04T21:20:00.627Z,10.75
2018-12-04T21:22:28.238Z,11.15
2018-12-04T21:24:55.786Z,11.30
2018-12-04T21:27:29.217Z,10.65
2018-12-04T21:30:02.356Z,10.15
2018-12-04T21:32:35.768Z,9.68
2018-12-04T21:35:09.280Z,12.03
2018-12-04T21:37:42.702Z,10.70
2018-12-04T21:40:16.025Z,11.60
2018-12-04T21:44:51.591Z,10.38
2018-12-04T21:47:24.857Z,11.45
2018-12-04T21:49:52.532Z,11.60
2018-12-04T21:52:20.316Z,11.63
2018-12-04T21:54:47.816Z,11.05
2018-12-04T21:57:15.392Z,12.33
2018-12-04T21:59:43.313Z,11.43
2018-12-04T22:02:11.243Z,12.37
2018-12-04T22:04:38.977Z,11.75
2018-12-04T22:07:06.471Z,11.83
2018-12-04T22:09:34.798Z,12.30
2018-12-04T22:12:02.873Z,12.85
2018-12-04T22:14:30.573Z,12.00
2018-12-04T22:16:58.171Z,13.22
2018-12-04T22:19:25.815Z,13.60
2018-12-04T22:21:53.544Z,13.05
2018-12-04T22:24:21.251Z,12.68
2018-12-04T22:26:48.894Z,11.97
2018-12-04T22:29:16.429Z,12.30
2018-12-04T22:31:44.057Z,12.10
2018-12-04T22:34:11.633Z,12.43
2018-12-04T22:36:39.261Z,12.88
2018-12-04T22:39:08.772Z,11.30
2018-12-04T22:41:37.091Z,12.30
2018-12-04T22:44:04.928Z,12.55
2018-12-04T22:46:32.601Z,12.10
2018-12-04T22:49:00.354Z,12.37
2018-12-04T22:51:27.881Z,12.80
2018-12-04T22:53:55.670Z,12.63
2018-12-04T22:56:23.209Z,12.65
2018-12-04T22:58:50.925Z,12.78
2018-12-04T23:01:41.441Z,11.60
2018-12-04T23:04:09.384Z,12.18
2018-12-04T23:06:37.499Z,12.07
2018-12-04T23:09:09.637Z,12.55
2018-12-04T23:11:38.405Z,12.63
2018-12-04T23:14:06.443Z,13.65
2018-12-04T23:16:34.231Z,12.55
2018-12-04T23:19:02.011Z,12.50
2018-12-04T23:21:30.248Z,13.08
2018-12-04T23:23:57.985Z,12.60
2018-12-04T23:26:26.228Z,12.25
2018-12-04T23:28:57.097Z,12.95
2018-12-04T23:31:25.264Z,12.78
2018-12-04T23:33:54.054Z,12.95
2018-12-04T23:36:22.205Z,13.80
2018-12-04T23:38:49.998Z,13.88
2018-12-04T23:41:18.212Z,13.95
2018-12-04T23:43:45.820Z,13.90
2018-12-04T23:46:13.727Z,13.53
2018-12-04T23:48:41.508Z,14.73
2018-12-04T23:51:09.191Z,14.87
2018-12-04T23:53:36.797Z,14.93
2018-12-04T23:56:04.501Z,14.13
2018-12-04T23:58:32.072Z,15.32
